Grundy, Virginia
Current Conditions -  °F | °C
As of 4:55 PM on Friday 28 Nov 2014 (Local Time) from KJFZ Reporting Station
Overcast Overcast  
Wind Chill: -3°   Ceiling: 11000
Heat Index:   Visibility: 10mi
Dew Point: -6°   Wind: 6mph
Humidity: 63%   Direction: 220°SW
Pressure: 30.21"   Gusts: NA
Location:  37.28°N, 82.1°W
Report Text: KJFZ 282155Z AUTO 22005KT 10SM OVC110 00/M06 A3021 RMK AO2 T00001062
Loading
Personal Weather Stations






























Interactive Weather Map New forecast layout! Learn more

10-Day Weather Forecast

Advertisements
Track Severe Weather on mobile